Omaha, Nebraska
Current Conditions -  °F | °C
As of 11:52 AM on Thursday 23 Oct 2014 (Local Time) from KOMA Reporting Station
Scattered Clouds Scattered Clouds  
Wind Chill: 62°   Ceiling: Unl
Heat Index: 62°   Visibility: 7mi
Dew Point: 56°   Wind: 6mph
Humidity: 80%   Direction: 20°NNE
Pressure: 30.08"   Gusts: NA
Location:  41.26°N, 95.94°W
Report Text: KOMA 231652Z 02005KT 7SM FEW007 SCT010 17/13 A3008 RMK AO2 SLP183 T01670133
Loading
Personal Weather Stations






























Interactive Weather Map
Tropical Storm Tracking
New forecast layout! Learn more

10-Day Weather Forecast

Advertisements
Track Severe Weather on mobile